Time;durP1;ratioP1;P1;durP2;ratioP2;P2;SDS_P1;SDS_P2;PMS_P1;PMS_P2;Temp;Humidity;BMP_temperature;BMP_pressure;BME280_temperature;BME280_humidity;BME280_pressure;Samples;Min_cycle;Max_cycle;Signal;HPM_P1;HPM_P2
2021/12/01 12:07:32;;;;;;;;;;;;;;;2.66;74.96;98646.83;1754404;77;20522;-71
2021/12/01 12:10:06;;;;;;;;;;;;;;;2.65;74.68;98647.34;1777819;80;20131;-69
2021/12/01 12:13:04;;;;;;;;;;;;;;;2.64;74.44;98650.23;1767215;80;20167;-70
2021/12/01 12:15:44;;;;;;;;;;;;;;;2.61;74.42;98656.86;1788386;80;20464;-70
2021/12/01 12:18:16;;;;;;;;;;;;;;;2.61;74.77;98667.67;1774095;80;20466;-71
2021/12/01 12:20:53;;;;;;;;;;;;;;;2.64;74.76;98665.10;1761011;81;20176;-69
2021/12/01 12:23:15;;;;;;;;;;;;;;;2.65;74.81;98675.73;1763869;81;20510;-70
2021/12/01 12:25:54;;;;;;;;;;;;;;;2.66;74.66;98672.00;1769677;80;20456;-71
2021/12/01 12:28:28;;;;;;;;;;;;;;;2.67;74.66;98680.43;1785203;80;20534;-70
2021/12/01 12:31:00;;;;;;;;;;;;;;;2.64;73.89;98690.27;1788107;80;20222;-70
2021/12/01 12:33:34;;;;;;;;;;;;;;;2.63;73.99;98698.06;1788360;80;20159;-70
2021/12/01 12:36:05;;;;;;;;;;;;;;;2.65;73.28;98698.71;1788612;80;20151;-69
2021/12/01 12:38:34;;;;;;;;;;;;;;;2.59;72.51;98697.24;1788146;80;20191;-71
2021/12/01 12:41:12;;;;;;;;;;;;;;;2.52;72.80;98711.51;1788701;80;20202;-70
2021/12/01 12:43:42;;;;;;;;;;;;;;;2.52;73.16;98713.37;1775152;80;20473;-70
2021/12/01 12:46:18;;;;;;;;;;;;;;;2.52;73.26;98718.27;1764834;81;20200;-71
2021/12/01 12:48:50;;;;;;;;;;;;;;;2.57;73.46;98724.46;1764890;81;20152;-70
2021/12/01 12:51:28;;;;;;;;;;;;;;;2.64;73.47;98734.88;1764894;81;20270;-70
2021/12/01 12:54:08;;;;;;;;;;;;;;;2.67;73.10;98730.45;1762784;81;20195;-71
2021/12/01 12:56:39;;;;;;;;;;;;;;;2.68;73.07;98747.52;1764892;81;20204;-70
2021/12/01 12:59:30;;;;;;;;;;;;;;;2.68;73.25;98758.33;1764930;80;20192;-70
2021/12/01 13:02:15;;;;;;;;;;;;;;;2.67;73.57;98775.06;1765369;81;20518;-70
2021/12/01 13:05:05;;;;;;;;;;;;;;;2.64;74.49;98802.48;1765030;81;20215;-71
2021/12/01 13:07:37;;;;;;;;;;;;;;;2.48;75.54;98813.44;1767306;80;20203;-69
2021/12/01 13:10:18;;;;;;;;;;;;;;;2.22;75.77;98818.75;1778312;80;20222;-69
2021/12/01 13:12:52;;;;;;;;;;;;;;;2.04;76.17;98818.76;1794257;80;20150;-69
2021/12/01 13:15:23;;;;;;;;;;;;;;;1.92;76.29;98833.17;1781845;80;20219;-68
2021/12/01 13:17:57;;;;;;;;;;;;;;;1.85;76.38;98833.56;1769051;80;20158;-69
2021/12/01 13:20:28;;;;;;;;;;;;;;;1.83;76.15;98849.11;1790982;80;20147;-68
2021/12/01 13:23:14;;;;;;;;;;;;;;;1.79;75.85;98863.98;1791295;80;20558;-68
2021/12/01 13:26:17;;;;;;;;;;;;;;;1.78;75.91;98871.25;1791281;80;20214;-69
2021/12/01 13:31:46;;;;;;;;;;;;;;;1.74;74.07;98890.17;1813941;79;20188;-68
2021/12/01 13:34:18;;;;;;;;;;;;;;;1.68;73.35;98904.89;1815025;79;20431;-63
2021/12/01 13:36:49;;;;;;;;;;;;;;;1.69;72.84;98906.58;1814602;79;20148;-62
2021/12/01 13:39:21;;;;;;;;;;;;;;;1.70;70.83;98905.56;1814545;79;20267;-61
2021/12/01 13:41:52;;;;;;;;;;;;;;;1.67;69.58;98897.30;1815041;79;20213;-62
2021/12/01 13:44:34;;;;;;;;;;;;;;;1.66;68.96;98900.18;1814761;79;20197;-63
2021/12/01 13:47:17;;;;;;;;;;;;;;;1.61;68.51;98907.46;1814752;79;20284;-60
2021/12/01 13:49:49;;;;;;;;;;;;;;;1.56;67.89;98917.44;1784402;79;20458;-62
2021/12/01 13:52:45;;;;;;;;;;;;;;;1.53;67.26;98927.23;1801891;79;20154;-62
2021/12/01 13:55:23;;;;;;;;;;;;;;;1.48;67.00;98936.88;1781549;80;20152;-62
2021/12/01 13:57:58;;;;;;;;;;;;;;;1.40;66.69;98951.25;1782739;80;20223;-62
2021/12/01 14:00:45;;;;;;;;;;;;;;;1.34;66.19;98950.60;1783052;80;21150;-62
2021/12/01 14:03:16;;;;;;;;;;;;;;;1.31;65.96;98964.44;1780158;80;20147;-61
2021/12/01 14:05:53;;;;;;;;;;;;;;;1.25;64.70;98974.55;1745821;82;20189;-61
2021/12/01 14:08:34;;;;;;;;;;;;;;;1.21;63.87;98983.48;1749014;82;20161;-61
2021/12/01 14:11:12;;;;;;;;;;;;;;;1.19;62.82;98992.27;1706204;84;20157;-62
2021/12/01 14:13:42;;;;;;;;;;;;;;;1.13;62.11;98992.11;1700642;84;20276;-62
2021/12/01 14:16:10;;;;;;;;;;;;;;;1.10;62.37;99000.55;1749168;82;20237;-62
2021/12/01 14:18:39;;;;;;;;;;;;;;;1.10;62.11;99005.44;1708823;83;20212;-61
2021/12/01 14:21:15;;;;;;;;;;;;;;;1.11;62.56;99003.07;1682673;85;20202;-62
2021/12/01 14:23:48;;;;;;;;;;;;;;;1.11;61.56;99000.38;1682745;85;20166;-61
2021/12/01 14:26:16;;;;;;;;;;;;;;;1.12;61.37;99001.22;1683089;85;20215;-61
2021/12/01 14:28:44;;;;;;;;;;;;;;;1.13;61.21;99002.90;1682614;85;20162;-62
2021/12/01 14:31:15;;;;;;;;;;;;;;;1.10;61.03;99002.73;1682587;85;20274;-62
2021/12/01 14:34:01;;;;;;;;;;;;;;;1.07;60.17;99006.28;1656047;85;20219;-61
2021/12/01 14:36:30;;;;;;;;;;;;;;;1.02;59.30;99010.00;1682825;85;20182;-61
2021/12/01 14:38:59;;;;;;;;;;;;;;;1.00;59.36;99011.52;1682858;85;20246;-61
2021/12/01 14:41:32;;;;;;;;;;;;;;;1.02;59.07;99008.66;1682692;85;20194;-62
2021/12/01 14:44:03;;;;;;;;;;;;;;;1.01;58.34;99008.31;1683109;85;20163;-62
2021/12/01 14:46:33;;;;;;;;;;;;;;;0.99;58.97;99014.39;1682643;85;20227;-61
2021/12/01 14:49:08;;;;;;;;;;;;;;;1.01;59.30;99023.15;1682576;85;20302;-61
2021/12/01 14:51:42;;;;;;;;;;;;;;;1.01;58.75;99025.34;1678968;85;20259;-62
2021/12/01 14:54:14;;;;;;;;;;;;;;;1.01;58.61;99040.17;1681196;85;20200;-62
2021/12/01 14:56:55;;;;;;;;;;;;;;;0.98;56.00;99041.86;1680357;85;20238;-62
2021/12/01 14:59:23;;;;;;;;;;;;;;;0.93;58.26;99044.22;1680146;85;20230;-61
2021/12/01 15:02:18;;;;;;;;;;;;;;;0.99;56.79;99057.53;1680115;85;20180;-62
2021/12/01 15:05:05;;;;;;;;;;;;;;;0.92;56.49;99059.55;1680057;85;20309;-62
2021/12/01 15:07:39;;;;;;;;;;;;;;;0.88;55.41;99057.37;1670476;85;20175;-62
2021/12/01 15:10:18;;;;;;;;;;;;;;;0.84;55.77;99066.80;1680157;85;20219;-62
2021/12/01 15:13:05;;;;;;;;;;;;;;;0.83;56.28;99071.36;1680152;85;20518;-62
2021/12/01 15:15:38;;;;;;;;;;;;;;;0.81;56.21;99069.84;1680469;85;20155;-61
2021/12/01 15:18:09;;;;;;;;;;;;;;;0.80;56.52;99078.43;1710661;83;20199;-62
2021/12/01 15:21:07;;;;;;;;;;;;;;;0.84;57.27;99078.43;1714109;83;20239;-61
2021/12/01 15:23:44;;;;;;;;;;;;;;;0.85;56.51;99078.77;1713789;84;20466;-61
2021/12/01 15:26:14;;;;;;;;;;;;;;;0.81;56.63;99078.77;1708425;84;20566;-61
2021/12/01 15:28:44;;;;;;;;;;;;;;;0.80;56.20;99078.43;1679601;84;20157;-62
2021/12/01 15:31:12;;;;;;;;;;;;;;;0.76;55.65;99082.98;1743229;82;20281;-61
2021/12/01 15:33:41;;;;;;;;;;;;;;;0.75;58.91;99092.92;1696282;85;20220;-60
2021/12/01 15:36:09;;;;;;;;;;;;;;;0.80;57.71;99112.63;1714129;84;20470;-60
2021/12/01 15:38:37;;;;;;;;;;;;;;;0.79;55.92;99106.91;1716940;84;20219;-62
2021/12/01 15:41:06;;;;;;;;;;;;;;;0.71;56.40;99113.63;1717141;84;20216;-60
2021/12/01 15:43:34;;;;;;;;;;;;;;;0.72;56.36;99110.77;1717258;84;20224;-61
2021/12/01 15:46:03;;;;;;;;;;;;;;;0.69;56.02;99115.15;1713762;84;20486;-62
2021/12/01 15:48:32;;;;;;;;;;;;;;;0.69;56.29;99112.95;1688475;85;20293;-60
2021/12/01 15:51:02;;;;;;;;;;;;;;;0.70;55.50;99120.88;1683940;85;20574;-61
2021/12/01 15:53:30;;;;;;;;;;;;;;;0.74;54.93;99131.67;1701702;84;20173;-61
2021/12/01 15:56:00;;;;;;;;;;;;;;;0.74;54.07;99132.17;1708537;84;20203;-61
2021/12/01 15:58:28;;;;;;;;;;;;;;;0.74;54.40;99132.17;1708451;84;20473;-62
2021/12/01 16:00:57;;;;;;;;;;;;;;;0.76;55.08;99136.38;1708347;84;20208;-61
2021/12/01 16:03:26;;;;;;;;;;;;;;;0.78;54.75;99132.17;1694486;85;20169;-61
2021/12/01 16:05:57;;;;;;;;;;;;;;;0.74;53.61;99128.97;1675136;85;20155;-61
2021/12/01 16:08:27;;;;;;;;;;;;;;;0.70;53.82;99126.77;1713871;84;20203;-62
2021/12/01 16:10:56;;;;;;;;;;;;;;;0.71;54.37;99129.81;1713797;84;20188;-61
2021/12/01 16:13:26;;;;;;;;;;;;;;;0.74;54.50;99132.17;1713699;84;20212;-61
2021/12/01 16:15:55;;;;;;;;;;;;;;;0.75;54.46;99127.96;1713880;84;20212;-61
2021/12/01 16:18:25;;;;;;;;;;;;;;;0.75;54.92;99122.56;1715572;84;20154;-62
2021/12/01 16:20:57;;;;;;;;;;;;;;;0.78;55.07;99113.30;1713801;84;20232;-62
2021/12/01 16:23:29;;;;;;;;;;;;;;;0.79;54.92;99114.48;1714152;84;20164;-62
2021/12/01 16:25:58;;;;;;;;;;;;;;;0.81;55.12;99119.71;1687645;82;20172;-61
2021/12/01 16:28:27;;;;;;;;;;;;;;;0.83;55.31;99115.84;1711848;82;20188;-62
2021/12/01 16:30:55;;;;;;;;;;;;;;;0.84;55.59;99124.27;1728521;82;20195;-62
2021/12/01 16:33:24;;;;;;;;;;;;;;;0.89;55.55;99129.16;1713964;84;20458;-61
2021/12/01 16:35:53;;;;;;;;;;;;;;;0.88;55.66;99132.36;1737010;82;20213;-61
2021/12/01 16:38:22;;;;;;;;;;;;;;;0.91;55.76;99136.57;1743533;82;20467;-60
2021/12/01 16:40:50;;;;;;;;;;;;;;;0.92;54.89;99136.91;1743309;82;20150;-62
2021/12/01 16:43:24;;;;;;;;;;;;;;;0.94;55.35;99151.91;1733427;82;20555;-61
2021/12/01 16:45:52;;;;;;;;;;;;;;;1.00;56.91;99152.25;1713993;84;20200;-61
2021/12/01 16:48:21;;;;;;;;;;;;;;;1.08;56.34;99149.05;1713811;84;20478;-61
2021/12/01 16:50:51;;;;;;;;;;;;;;;1.09;55.33;99143.16;1713805;84;20477;-61
2021/12/01 16:53:19;;;;;;;;;;;;;;;1.09;54.95;99141.80;1713795;84;20530;-60
2021/12/01 16:55:48;;;;;;;;;;;;;;;1.06;54.55;99141.64;1713897;83;20192;-62
2021/12/01 16:58:17;;;;;;;;;;;;;;;1.07;55.03;99150.57;1713803;84;20236;-61
2021/12/01 17:00:48;;;;;;;;;;;;;;;1.06;54.97;99151.08;1715087;84;20234;-61
2021/12/01 17:03:28;;;;;;;;;;;;;;;1.07;54.71;99154.61;1721543;83;20266;-61
2021/12/01 17:06:05;;;;;;;;;;;;;;;1.03;54.53;99153.27;1716461;83;20198;-60
2021/12/01 17:08:41;;;;;;;;;;;;;;;1.01;54.90;99150.73;1716232;83;20210;-62
2021/12/01 17:11:10;;;;;;;;;;;;;;;1.03;54.99;99145.17;1716278;84;20199;-61
2021/12/01 17:13:41;;;;;;;;;;;;;;;1.05;55.10;99145.85;1716167;84;20154;-61
2021/12/01 17:16:09;;;;;;;;;;;;;;;1.05;54.64;99153.44;1716383;83;20266;-61
2021/12/01 17:18:43;;;;;;;;;;;;;;;1.05;54.79;99159.34;1713684;83;20287;-61
2021/12/01 17:21:12;;;;;;;;;;;;;;;1.06;54.91;99157.82;1714503;82;20310;-61
2021/12/01 17:23:41;;;;;;;;;;;;;;;1.13;57.31;99160.19;1713680;84;20223;-60
2021/12/01 17:26:09;;;;;;;;;;;;;;;1.20;56.52;99170.64;1713739;84;20164;-61
2021/12/01 17:28:39;;;;;;;;;;;;;;;1.24;55.91;99172.50;1713546;84;20217;-61
2021/12/01 17:33:48;;;;;;;;;;;;;;;1.21;55.64;99170.97;1713769;84;20188;-62
2021/12/01 17:36:16;;;;;;;;;;;;;;;1.21;55.56;99174.18;1687749;85;20234;-61
2021/12/01 17:38:45;;;;;;;;;;;;;;;1.18;55.46;99177.21;1687370;84;20482;-60
2021/12/01 17:41:13;;;;;;;;;;;;;;;1.14;55.55;99175.86;1716418;83;20281;-61
2021/12/01 17:43:41;;;;;;;;;;;;;;;1.13;55.73;99170.13;1687642;85;20600;-61
2021/12/01 17:46:15;;;;;;;;;;;;;;;1.13;55.88;99164.73;1687677;85;20253;-62
2021/12/01 17:48:45;;;;;;;;;;;;;;;1.12;55.86;99182.77;1716274;83;20158;-61
2021/12/01 17:51:14;;;;;;;;;;;;;;;1.11;55.51;99173.50;1687412;84;20555;-61
2021/12/01 17:53:43;;;;;;;;;;;;;;;1.11;55.91;99162.20;1687793;84;20216;-61
2021/12/01 17:56:11;;;;;;;;;;;;;;;1.15;56.19;99162.71;1716425;83;20448;-60
2021/12/01 17:58:41;;;;;;;;;;;;;;;1.15;55.87;99159.51;1710728;84;20555;-60
2021/12/01 18:01:10;;;;;;;;;;;;;;;1.14;55.96;99159.68;1708469;84;20520;-60
2021/12/01 18:03:39;;;;;;;;;;;;;;;1.10;55.92;99156.98;1737825;83;20225;-60
2021/12/01 18:06:07;;;;;;;;;;;;;;;1.07;55.94;99174.84;1708499;84;20326;-60
2021/12/01 18:08:35;;;;;;;;;;;;;;;1.06;55.79;99175.34;1708720;84;20587;-61
2021/12/01 18:11:04;;;;;;;;;;;;;;;1.02;55.78;99186.64;1737893;83;20154;-59
2021/12/01 18:13:37;;;;;;;;;;;;;;;0.97;55.44;99179.55;1737932;83;20214;-60
2021/12/01 18:16:06;;;;;;;;;;;;;;;0.87;55.31;99176.50;1737791;83;20159;-59
2021/12/01 18:18:36;;;;;;;;;;;;;;;0.84;55.25;99176.84;1737672;82;20202;-59
2021/12/01 18:21:04;;;;;;;;;;;;;;;0.82;55.80;99181.55;1737863;83;20154;-60
2021/12/01 18:23:35;;;;;;;;;;;;;;;0.81;56.02;99174.47;1735718;82;20222;-60
2021/12/01 18:26:04;;;;;;;;;;;;;;;0.83;56.34;99179.70;1738067;82;20213;-60
2021/12/01 18:28:32;;;;;;;;;;;;;;;0.82;57.00;99178.86;1737908;82;20158;-59
2021/12/01 18:31:00;;;;;;;;;;;;;;;0.78;56.34;99178.84;1737838;83;20154;-60
2021/12/01 18:33:29;;;;;;;;;;;;;;;0.70;56.40;99181.52;1738006;82;20210;-60
2021/12/01 18:35:57;;;;;;;;;;;;;;;0.68;56.72;99175.45;1737878;82;20154;-59
2021/12/01 18:38:25;;;;;;;;;;;;;;;0.67;56.76;99172.42;1737800;83;20142;-61
2021/12/01 18:40:53;;;;;;;;;;;;;;;0.66;56.68;99180.17;1737839;82;20242;-59
2021/12/01 18:43:22;;;;;;;;;;;;;;;0.68;56.92;99178.66;1737902;82;20222;-57
2021/12/01 18:45:52;;;;;;;;;;;;;;;0.62;56.94;99186.36;1737898;83;20176;-60
2021/12/01 18:48:21;;;;;;;;;;;;;;;0.59;56.78;99185.34;1737978;83;20533;-59
2021/12/01 18:50:52;;;;;;;;;;;;;;;0.57;57.03;99182.47;1737795;83;20217;-60
2021/12/01 18:53:22;;;;;;;;;;;;;;;0.54;57.01;99182.80;1737966;83;20147;-59
2021/12/01 18:55:50;;;;;;;;;;;;;;;0.48;57.16;99182.10;1737722;82;20306;-59
2021/12/01 18:58:20;;;;;;;;;;;;;;;0.45;57.33;99181.08;1708865;84;20510;-60
2021/12/01 19:00:51;;;;;;;;;;;;;;;0.46;57.55;99175.53;1708434;84;20228;-60
2021/12/01 19:03:19;;;;;;;;;;;;;;;0.47;57.56;99177.22;1708550;84;20482;-61
2021/12/01 19:05:47;;;;;;;;;;;;;;;0.47;57.70;99182.61;1707300;84;20544;-60
2021/12/01 19:08:16;;;;;;;;;;;;;;;0.48;57.55;99182.10;1711977;84;20164;-60
2021/12/01 19:10:44;;;;;;;;;;;;;;;0.47;57.58;99175.03;1738115;83;20224;-59
2021/12/01 19:13:13;;;;;;;;;;;;;;;0.44;57.47;99174.01;1708632;84;20221;-59
2021/12/01 19:15:44;;;;;;;;;;;;;;;0.39;57.48;99174.50;1743480;82;20155;-60
2021/12/01 19:18:15;;;;;;;;;;;;;;;0.36;57.66;99186.10;1708783;84;20160;-61
2021/12/01 19:20:46;;;;;;;;;;;;;;;0.31;57.88;99190.12;1708250;84;20176;-60
2021/12/01 19:23:15;;;;;;;;;;;;;;;0.26;58.36;99192.46;1737938;83;20178;-58
2021/12/01 19:25:45;;;;;;;;;;;;;;;0.23;58.79;99185.20;1738264;83;20218;-60
2021/12/01 19:28:14;;;;;;;;;;;;;;;0.17;59.42;99188.05;1738018;83;20155;-60
2021/12/01 19:30:43;;;;;;;;;;;;;;;0.11;59.69;99184.65;1737937;83;20467;-60
2021/12/01 19:33:11;;;;;;;;;;;;;;;0.08;59.85;99187.66;1708586;84;20493;-59
2021/12/01 19:35:45;;;;;;;;;;;;;;;0.06;59.58;99192.87;1709035;84;20227;-59
2021/12/01 19:38:26;;;;;;;;;;;;;;;0.03;59.44;99195.38;1687535;84;20539;-59
2021/12/01 19:40:56;;;;;;;;;;;;;;;0.06;59.68;99201.79;1738004;83;20166;-60
2021/12/01 19:43:24;;;;;;;;;;;;;;;0.08;59.79;99198.44;1737986;83;20257;-64
2021/12/01 19:45:53;;;;;;;;;;;;;;;0.04;59.58;99199.76;1737982;83;20154;-59
2021/12/01 19:48:21;;;;;;;;;;;;;;;0.01;59.75;99200.58;1738259;83;20460;-59
2021/12/01 19:50:50;;;;;;;;;;;;;;;-0.04;59.68;99196.98;1738184;82;20531;-58
2021/12/01 19:53:18;;;;;;;;;;;;;;;-0.09;59.43;99196.13;1738147;83;20222;-59
2021/12/01 19:55:49;;;;;;;;;;;;;;;-0.18;59.52;99202.47;1741807;82;20534;-61
2021/12/01 19:58:17;;;;;;;;;;;;;;;-0.23;59.78;99205.28;1746115;82;20264;-61
2021/12/01 20:00:46;;;;;;;;;;;;;;;-0.25;60.04;99206.79;1746104;82;20154;-59
2021/12/01 20:03:15;;;;;;;;;;;;;;;-0.22;60.09;99211.02;1746061;82;20483;-60
2021/12/01 20:05:46;;;;;;;;;;;;;;;-0.21;60.25;99201.94;1746403;82;20466;-60
2021/12/01 20:08:16;;;;;;;;;;;;;;;-0.20;60.39;99202.28;1729637;82;20246;-59
2021/12/01 20:10:44;;;;;;;;;;;;;;;-0.21;60.26;99200.59;1746090;82;20238;-60
2021/12/01 20:13:14;;;;;;;;;;;;;;;-0.26;60.35;99199.72;1746274;82;20272;-61
2021/12/01 20:15:43;;;;;;;;;;;;;;;-0.28;60.60;99205.77;1746058;82;20161;-59
2021/12/01 20:18:15;;;;;;;;;;;;;;;-0.29;60.60;99207.27;1746061;82;20154;-59
2021/12/01 20:20:46;;;;;;;;;;;;;;;-0.31;60.71;99214.16;1746050;82;20162;-60
2021/12/01 20:23:14;;;;;;;;;;;;;;;-0.32;60.86;99216.50;1746091;82;20185;-60
2021/12/01 20:25:43;;;;;;;;;;;;;;;-0.29;60.95;99220.72;1745935;82;20216;-59
2021/12/01 20:28:12;;;;;;;;;;;;;;;-0.24;61.05;99217.05;1746475;82;20166;-60
2021/12/01 20:30:40;;;;;;;;;;;;;;;-0.25;61.08;99222.09;1745812;82;20185;-59
2021/12/01 20:33:09;;;;;;;;;;;;;;;-0.25;61.09;99232.86;1746151;82;20198;-60
2021/12/01 20:35:40;;;;;;;;;;;;;;;-0.24;61.23;99233.20;1745832;82;20193;-60
2021/12/01 20:38:10;;;;;;;;;;;;;;;-0.24;61.29;99245.31;1746253;82;20256;-59
2021/12/01 20:40:41;;;;;;;;;;;;;;;-0.24;61.16;99247.50;1742079;82;20161;-59
2021/12/01 20:43:09;;;;;;;;;;;;;;;-0.26;61.17;99240.59;1746172;82;20185;-59
2021/12/01 20:45:44;;;;;;;;;;;;;;;-0.30;61.00;99240.06;1745977;82;20322;-60
2021/12/01 20:56:40;;;;;;;;;;;;;;;-0.42;61.59;99244.84;1672310;85;20532;-59
2021/12/01 21:01:44;;;;;;;;;;;;;;;-0.43;61.43;99236.44;1648485;86;20216;-60
2021/12/01 21:04:21;;;;;;;;;;;;;;;-0.41;61.55;99230.89;1665935;86;20322;-60
2021/12/01 21:06:45;;;;;;;;;;;;;;;-0.40;61.55;99233.93;1680174;85;20243;-60
2021/12/01 21:09:28;;;;;;;;;;;;;;;-0.39;61.45;99240.50;1713976;84;20180;-60
2021/12/01 21:11:52;;;;;;;;;;;;;;;-0.41;61.58;99239.81;1713542;84;20231;-60
2021/12/01 21:14:20;;;;;;;;;;;;;;;-0.41;61.64;99241.66;1714013;84;20160;-60
2021/12/01 21:16:49;;;;;;;;;;;;;;;-0.41;61.66;99243.00;1713880;84;20172;-59
2021/12/01 21:19:19;;;;;;;;;;;;;;;-0.44;61.69;99239.28;1714143;84;20260;-59
2021/12/01 21:21:51;;;;;;;;;;;;;;;-0.48;61.86;99238.75;1713957;84;20168;-60
2021/12/01 21:24:20;;;;;;;;;;;;;;;-0.48;62.06;99228.48;1713891;84;20196;-60
2021/12/01 21:26:51;;;;;;;;;;;;;;;-0.47;62.21;99232.87;1713875;84;20252;-59
2021/12/01 21:29:20;;;;;;;;;;;;;;;-0.45;62.41;99239.78;1713924;84;20200;-60
2021/12/01 21:31:49;;;;;;;;;;;;;;;-0.42;62.60;99239.47;1713974;84;20518;-60
2021/12/01 21:34:19;;;;;;;;;;;;;;;-0.41;62.70;99234.43;1713886;84;20141;-59
2021/12/01 21:36:47;;;;;;;;;;;;;;;-0.38;62.62;99232.77;1713885;84;20367;-59
2021/12/01 21:39:15;;;;;;;;;;;;;;;-0.38;62.47;99227.89;1714026;84;20164;-60
2021/12/01 21:41:43;;;;;;;;;;;;;;;-0.41;62.62;99233.59;1713882;84;20471;-61
2021/12/01 21:44:11;;;;;;;;;;;;;;;-0.50;62.98;99232.67;1713915;84;20192;-60
2021/12/01 21:46:41;;;;;;;;;;;;;;;-0.60;63.39;99229.73;1714103;84;20474;-60
2021/12/01 21:49:13;;;;;;;;;;;;;;;-0.76;63.79;99235.78;1714027;84;20470;-59
2021/12/01 21:51:41;;;;;;;;;;;;;;;-0.82;64.30;99241.28;1713881;84;20184;-60
2021/12/01 21:54:11;;;;;;;;;;;;;;;-0.82;64.54;99248.50;1713709;84;20156;-61
2021/12/01 21:56:41;;;;;;;;;;;;;;;-0.87;64.62;99255.68;1686675;83;20214;-59
2021/12/01 21:59:10;;;;;;;;;;;;;;;-0.88;64.70;99262.56;1731532;83;20159;-59
2021/12/01 22:01:39;;;;;;;;;;;;;;;-0.93;64.93;99267.55;1731595;83;20254;-60
2021/12/01 22:04:09;;;;;;;;;;;;;;;-0.97;65.09;99271.88;1731594;83;20242;-60
2021/12/01 22:06:37;;;;;;;;;;;;;;;-0.96;65.12;99265.51;1731421;83;20179;-60
2021/12/01 22:09:06;;;;;;;;;;;;;;;-0.97;65.02;99261.13;1731377;83;20519;-60
2021/12/01 22:11:34;;;;;;;;;;;;;;;-0.97;65.04;99260.28;1731523;83;20162;-59
2021/12/01 22:14:02;;;;;;;;;;;;;;;-0.98;65.17;99258.09;1731424;83;20190;-58
2021/12/01 22:16:31;;;;;;;;;;;;;;;-1.03;65.39;99259.05;1731832;83;20198;-58
2021/12/01 22:19:01;;;;;;;;;;;;;;;-1.04;65.61;99264.58;1731368;83;20150;-59
2021/12/01 22:21:36;;;;;;;;;;;;;;;-1.08;65.76;99265.88;1731388;83;20223;-60
2021/12/01 22:24:07;;;;;;;;;;;;;;;-1.10;66.00;99265.19;1731351;83;20198;-59
2021/12/01 22:26:35;;;;;;;;;;;;;;;-1.15;66.28;99258.08;1731428;83;20222;-58
2021/12/01 22:29:15;;;;;;;;;;;;;;;-1.16;66.35;99257.23;1731484;83;20162;-59
2021/12/01 22:31:46;;;;;;;;;;;;;;;-1.16;66.27;99262.61;1731331;83;20166;-60
2021/12/01 22:34:16;;;;;;;;;;;;;;;-1.11;66.25;99263.00;1731435;83;20206;-59
2021/12/01 22:36:45;;;;;;;;;;;;;;;-1.05;65.99;99270.95;1731308;83;20566;-58
2021/12/01 22:39:14;;;;;;;;;;;;;;;-1.00;65.57;99274.03;1731399;83;20218;-59
2021/12/01 22:41:43;;;;;;;;;;;;;;;-0.93;65.36;99276.45;1731578;83;20460;-60
2021/12/01 22:44:12;;;;;;;;;;;;;;;-0.87;65.13;99273.66;1731716;83;20520;-59
2021/12/01 22:46:40;;;;;;;;;;;;;;;-0.80;64.84;99269.36;1731608;83;20500;-58
2021/12/01 22:49:08;;;;;;;;;;;;;;;-0.76;64.55;99258.64;1731428;83;20210;-59
2021/12/01 22:51:36;;;;;;;;;;;;;;;-0.72;64.39;99262.71;1731570;83;20151;-58
2021/12/01 22:54:06;;;;;;;;;;;;;;;-0.68;64.03;99266.78;1731463;83;20281;-58
2021/12/01 22:56:36;;;;;;;;;;;;;;;-0.69;64.05;99261.91;1731417;82;20214;-58
2021/12/01 22:59:12;;;;;;;;;;;;;;;-0.63;63.85;99259.13;1702666;84;20568;-58
2021/12/01 23:01:41;;;;;;;;;;;;;;;-0.61;63.65;99260.32;1718569;83;20268;-59
2021/12/01 23:04:13;;;;;;;;;;;;;;;-0.61;63.35;99258.48;1718615;83;20215;-58
2021/12/01 23:06:41;;;;;;;;;;;;;;;-0.59;63.32;99263.70;1718540;83;20473;-58
2021/12/01 23:09:10;;;;;;;;;;;;;;;-0.56;63.14;99272.30;1718782;83;20188;-58
2021/12/01 23:11:39;;;;;;;;;;;;;;;-0.55;62.72;99267.27;1718687;83;20267;-59
2021/12/01 23:14:09;;;;;;;;;;;;;;;-0.56;62.75;99273.66;1668170;83;20223;-60
2021/12/01 23:16:39;;;;;;;;;;;;;;;-0.52;62.74;99265.62;1718559;83;20157;-57
2021/12/01 23:19:07;;;;;;;;;;;;;;;-0.48;62.65;99268.84;1718752;83;20180;-59
2021/12/01 23:21:40;;;;;;;;;;;;;;;-0.44;62.46;99253.58;1718792;83;20188;-59
2021/12/01 23:29:42;;;;;;;;;;;;;;;-0.29;61.28;99257.05;1718472;83;20163;-59
2021/12/01 23:32:13;;;;;;;;;;;;;;;-0.34;61.09;99263.75;1718770;83;20478;-60
2021/12/01 23:34:41;;;;;;;;;;;;;;;-0.33;61.11;99260.56;1718499;83;20215;-59
2021/12/01 23:37:09;;;;;;;;;;;;;;;-0.32;60.57;99259.05;1718801;83;20523;-59
2021/12/01 23:39:43;;;;;;;;;;;;;;;-0.33;60.16;99252.48;1718469;83;20215;-59
2021/12/01 23:42:11;;;;;;;;;;;;;;;-0.34;60.38;99254.83;1718631;83;20191;-60
2021/12/01 23:44:41;;;;;;;;;;;;;;;-0.33;60.52;99251.98;1702406;84;20201;-59
2021/12/01 23:47:28;;;;;;;;;;;;;;;-0.27;60.56;99255.05;1702269;84;20177;-59
2021/12/01 23:52:35;;;;;;;;;;;;;;;-0.20;60.21;99239.45;1702396;84;20184;-59
2021/12/01 23:55:04;;;;;;;;;;;;;;;-0.14;59.78;99244.21;1731349;83;20157;-59
2021/12/01 23:57:33;;;;;;;;;;;;;;;-0.10;59.46;99236.66;1706555;83;20260;-59
